Flight Track Log - Related Links

Times and Time Zones

All times are in EDT time to prevent confusion due to time zone crossing. See the N254TM flight status page for this flight to view local times or setup timezone preferences in your user account.

Time Position Orientation Groundspeed Altitude Reporting Facility
EDT Latitude Longitude Course Direction KTS MPH feet Rate Location/Type
Tue 08:36:30 PM 32.8433 -79.6561 49° Northeast 156 180 6,200  Level Jacksonville Center
Tue 08:41:07 PM 32.9803 -79.4703 54° Northeast 156 180 10,100 839 Climbing Jacksonville Center
Tue 08:42:06 PM 33.0083 -79.4247 42° Northeast 161 185 10,900 807 Climbing Jacksonville Center
Tue 08:43:06 PM 33.0447 -79.3861 41° Northeast 161 185 11,700 850 Climbing Jacksonville Center
Tue 08:44:06 PM 33.0814 -79.3475 35° Northeast 167 192 12,600 850 Climbing Jacksonville Center
Tue 08:45:06 PM 33.1219 -79.3136 37° Northeast 172 198 13,400 800 Climbing Jacksonville Center
Tue 08:46:06 PM 33.1628 -79.2772 33° Northeast 172 198 14,200 800 Climbing Jacksonville Center
Tue 08:47:06 PM 33.2036 -79.2458 29° Northeast 172 198 15,000 400 Climbing Jacksonville Center
Tue 08:48:06 PM 33.2547 -79.2114 12° North 182 209 15,000  Level Jacksonville Center
Tue 08:49:06 PM 33.3128 -79.1967 354° North 198 228 15,000  Level Jacksonville Center
Tue 08:50:06 PM 33.3714 -79.2042 347° North 198 228 15,000  Level Jacksonville Center
Tue 08:51:06 PM 33.4261 -79.2194 350° North 203 234 15,000  Level Jacksonville Center
Tue 08:52:06 PM 33.4828 -79.2319 340° North 203 234 15,000  Level Jacksonville Center
Tue 08:53:06 PM 33.5356 -79.2547 346° North 203 234 15,000  Level Jacksonville Center
Tue 08:54:06 PM 33.5925 -79.2722 349° North 208 239 15,000  Level Jacksonville Center
Tue 08:55:06 PM 33.6472 -79.2850 345° North 208 239 15,000  Level Jacksonville Center
Tue 08:56:06 PM 33.7039 -79.3028 344° North 208 239 15,000  Level Jacksonville Center
Tue 08:57:06 PM 33.7567 -79.3206 346° North 208 239 15,000  Level Jacksonville Center
Tue 08:58:06 PM 33.8136 -79.3381 346° North 208 239 15,000 -300 Level Jacksonville Center
Tue 08:59:06 PM 33.8744 -79.3558 348° North 209 241 14,400 -700 Descending Jacksonville Center
Tue 09:00:06 PM 33.9333 -79.3708 353° North 219 252 13,600 -650 Descending Jacksonville Center
Tue 09:01:06 PM 33.9983 -79.3808 North 225 259 13,100 -300 Descending Jacksonville Center
Tue 09:02:06 PM 34.0567 -79.3758 North 218 251 13,000 -450 Descending Jacksonville Center
Tue 09:03:06 PM 34.1150 -79.3736 North 218 251 12,200 -700 Descending Jacksonville Center
Tue 09:04:06 PM 34.1772 -79.3686 358° North 218 251 11,600 -600 Descending Jacksonville Center
Tue 09:05:06 PM 34.2378 -79.3711 352° North 218 251 11,000 -300 Descending Jacksonville Center
Tue 09:06:06 PM 34.2967 -79.3814 314° West 213 245 11,000  Level Jacksonville Center
Tue 09:07:06 PM 34.3292 -79.4228 304° West 186 214 11,000  Level Jacksonville Center
Tue 09:08:06 PM 34.3575 -79.4744 301° West 178 205 11,000 -50 Level Jacksonville Center
Tue 09:09:06 PM 34.3861 -79.5311 299° West 192 221 10,900 -250 Descending Jacksonville Center
Tue 09:10:06 PM 34.4128 -79.5906 300° West 197 227 10,500 -450 Descending Jacksonville Center
Tue 09:11:06 PM 34.4394 -79.6475 307° West 191 220 10,000 -222 Descending Jacksonville Center
Tue 09:20:55 PM 34.7556 -80.1581 341° North 189 217 8,100 -130 Descending Atlanta Center
Tue 09:25:41 PM 34.9861 -80.2564 358° North 192 221 8,100  Level Atlanta Center
Tue 09:26:42 PM 35.0403 -80.2589 356° North 198 228 8,100 -47 Level Atlanta Center
Tue 09:27:49 PM 35.1011 -80.2636 355° North 192 221 8,000  Descending Atlanta Center
Tue 09:28:50 PM 35.1556 -80.2689 358° North 194 223 8,100 -157 Climbing Atlanta Center
Tue 09:29:44 PM 35.2078 -80.2717 358° North 200 230 7,700 -397 Descending Atlanta Center
Tue 09:30:51 PM 35.2703 -80.2739 357° North 207 238 7,300 -358 Descending Atlanta Center
Tue 09:38:32 PM 35.7062 -80.2975 357° North  Level FlightAware Approximate

Login

Don't have an account? Register now (free) for customized features, flight alerts, and more!